createdAt,value
2017-04-10T00:00:29.786Z,1016.08
2017-04-10T00:01:39.016Z,1016.01
2017-04-10T00:02:48.560Z,1016
2017-04-10T00:03:57.775Z,1015.97
2017-04-10T00:05:06.666Z,1015.96
2017-04-10T00:06:16.208Z,1015.93
2017-04-10T00:07:25.295Z,1015.92
2017-04-10T00:08:34.193Z,1015.9
2017-04-10T00:09:43.749Z,1015.91
2017-04-10T00:10:52.640Z,1015.91
2017-04-10T00:12:01.851Z,1015.91
2017-04-10T00:13:10.789Z,1015.88
2017-04-10T00:14:19.682Z,1015.86
2017-04-10T00:15:28.573Z,1015.83
2017-04-10T00:16:37.459Z,1015.85
2017-04-10T00:17:46.381Z,1015.83
2017-04-10T00:18:55.271Z,1015.81
2017-04-10T00:20:04.488Z,1015.78
2017-04-10T00:21:13.701Z,1015.73
2017-04-10T00:22:22.592Z,1015.75
2017-04-10T00:23:31.806Z,1015.72
2017-04-10T00:24:41.170Z,1015.7
2017-04-10T00:25:50.719Z,1015.66
2017-04-10T00:26:59.929Z,1015.66
2017-04-10T00:28:09.793Z,1015.62
2017-04-10T00:29:19.367Z,1015.61
2017-04-10T00:30:29.157Z,1015.61
2017-04-10T00:31:38.695Z,1015.58
2017-04-10T00:32:47.584Z,1015.58
2017-04-10T00:33:56.802Z,1015.61
2017-04-10T00:35:06.340Z,1015.6
2017-04-10T00:36:15.704Z,1015.57
2017-04-10T00:37:24.596Z,1015.58
2017-04-10T00:38:33.814Z,1015.51
2017-04-10T00:39:43.034Z,1015.5
2017-04-10T00:40:52.250Z,1015.5
2017-04-10T00:42:01.620Z,1015.47
2017-04-10T00:43:10.516Z,1015.46
2017-04-10T00:44:20.391Z,1015.46
2017-04-10T00:45:29.611Z,1015.45
2017-04-10T00:46:38.835Z,1015.42
2017-04-10T00:47:48.210Z,1015.4
2017-04-10T00:48:58.079Z,1015.4
2017-04-10T00:50:07.624Z,1015.4
2017-04-10T00:51:16.841Z,1015.42
2017-04-10T00:52:26.054Z,1015.41
2017-04-10T00:53:35.094Z,1015.33
2017-04-10T00:54:45.012Z,1015.34
2017-04-10T00:55:54.231Z,1015.23
2017-04-10T00:57:03.122Z,1015.24
2017-04-10T00:58:12.016Z,1015.21
2017-04-10T00:59:21.331Z,1015.15
2017-04-10T01:00:31.280Z,1015.19
2017-04-10T01:01:40.818Z,1015.16
2017-04-10T01:02:49.710Z,1015.09
2017-04-10T01:03:58.934Z,1015.1
2017-04-10T01:05:09.274Z,1015.1
2017-04-10T01:06:18.486Z,1015.05
2017-04-10T01:07:27.697Z,1015.02
2017-04-10T01:08:36.918Z,1015.07
2017-04-10T01:09:46.134Z,1015.01
2017-04-10T01:10:55.827Z,1015.04
2017-04-10T01:12:04.718Z,1015
2017-04-10T01:13:13.936Z,1014.99
2017-04-10T01:14:23.165Z,1014.94
2017-04-10T01:15:32.706Z,1014.92
2017-04-10T01:16:42.123Z,1014.89
2017-04-10T01:17:51.012Z,1014.89
2017-04-10T01:19:00.561Z,1014.84
2017-04-10T01:20:09.770Z,1014.75
2017-04-10T01:21:18.655Z,1014.77
2017-04-10T01:22:27.693Z,1014.75
2017-04-10T01:23:36.581Z,1014.74
2017-04-10T01:24:45.466Z,1014.81
2017-04-10T01:25:54.677Z,1014.72
2017-04-10T01:27:03.900Z,1014.74
2017-04-10T01:28:13.084Z,1014.68
2017-04-10T01:29:22.301Z,1014.69
2017-04-10T01:30:31.184Z,1014.7
2017-04-10T01:31:40.073Z,1014.69
2017-04-10T01:32:48.958Z,1014.68
2017-04-10T01:33:57.997Z,1014.67
2017-04-10T01:35:07.537Z,1014.7
2017-04-10T01:36:16.425Z,1014.7
2017-04-10T01:37:25.634Z,1014.72
2017-04-10T01:38:34.863Z,1014.71
2017-04-10T01:39:44.930Z,1014.67
2017-04-10T01:40:53.820Z,1014.67
2017-04-10T01:42:02.710Z,1014.7
2017-04-10T01:43:11.598Z,1014.71
2017-04-10T01:44:20.486Z,1014.65
2017-04-10T01:45:29.424Z,1014.64
2017-04-10T01:46:38.309Z,1014.66
2017-04-10T01:47:47.190Z,1014.64
2017-04-10T01:48:56.725Z,1014.6
2017-04-10T01:50:06.265Z,1014.58
2017-04-10T01:51:15.627Z,1014.56
2017-04-10T01:52:24.514Z,1014.57
2017-04-10T01:53:33.735Z,1014.55
2017-04-10T01:54:42.621Z,1014.53
2017-04-10T01:55:51.521Z,1014.53
2017-04-10T01:57:01.261Z,1014.5
2017-04-10T01:58:10.470Z,1014.46
2017-04-10T01:59:19.362Z,1014.44
2017-04-10T02:00:28.253Z,1014.39
2017-04-10T02:01:37.472Z,1014.32
2017-04-10T02:02:46.362Z,1014.27
2017-04-10T02:03:55.248Z,1014.21
2017-04-10T02:05:04.137Z,1014.16
2017-04-10T02:06:13.352Z,1014.13
2017-04-10T02:07:22.568Z,1014.09
2017-04-10T02:08:31.655Z,1014.06
2017-04-10T02:09:40.866Z,1014.01
2017-04-10T02:10:49.753Z,1014.01
2017-04-10T02:11:58.645Z,1014.03
2017-04-10T02:13:07.856Z,1014.02
2017-04-10T02:14:17.046Z,1013.99
2017-04-10T02:15:26.588Z,1013.99
2017-04-10T02:16:35.800Z,1014.06
2017-04-10T02:17:45.016Z,1014.03
2017-04-10T02:18:54.879Z,1014.03
2017-04-10T02:20:05.096Z,1013.99
2017-04-10T02:21:13.982Z,1013.98
2017-04-10T02:22:23.201Z,1013.94
2017-04-10T02:23:32.416Z,1013.95
2017-04-10T02:24:41.306Z,1013.95
2017-04-10T02:25:50.244Z,1013.95
2017-04-10T02:26:59.455Z,1013.93
2017-04-10T02:28:08.996Z,1013.89
2017-04-10T02:29:18.215Z,1013.85
2017-04-10T02:30:27.756Z,1013.88
2017-04-10T02:31:36.742Z,1013.88
2017-04-10T02:32:45.635Z,1013.85
2017-04-10T02:33:54.527Z,1013.89
2017-04-10T02:35:03.413Z,1013.87
2017-04-10T02:36:12.625Z,1013.82
2017-04-10T02:37:22.241Z,1013.83
2017-04-10T02:38:31.128Z,1013.81
2017-04-10T02:39:40.015Z,1013.79
2017-04-10T02:40:49.225Z,1013.79
2017-04-10T02:41:58.444Z,1013.8
2017-04-10T02:43:07.657Z,1013.78
2017-04-10T02:44:17.520Z,1013.79
2017-04-10T02:45:26.730Z,1013.78
2017-04-10T02:46:35.618Z,1013.76
2017-04-10T02:47:45.154Z,1013.69
2017-04-10T02:48:55.049Z,1013.66
2017-04-10T02:50:04.928Z,1013.66
2017-04-10T02:51:14.141Z,1013.65
2017-04-10T02:52:23.030Z,1013.64
2017-04-10T02:53:31.917Z,1013.61
2017-04-10T02:54:41.463Z,1013.58
2017-04-10T02:55:50.350Z,1013.55
2017-04-10T02:56:59.890Z,1013.53
2017-04-10T02:58:08.777Z,1013.56
2017-04-10T02:59:17.986Z,1013.6
2017-04-10T03:00:26.970Z,1013.64
2017-04-10T03:01:35.853Z,1013.63
2017-04-10T03:02:44.740Z,1013.66
2017-04-10T03:03:54.280Z,1013.67
2017-04-10T03:05:03.167Z,1013.63
2017-04-10T03:06:12.055Z,1013.59
2017-04-10T03:07:21.591Z,1013.59
2017-04-10T03:08:30.482Z,1013.58
2017-04-10T03:09:39.697Z,1013.58
2017-04-10T03:10:48.921Z,1013.5
2017-04-10T03:11:57.860Z,1013.6
2017-04-10T03:13:07.079Z,1013.68
2017-04-10T03:14:16.291Z,1013.59
2017-04-10T03:15:25.175Z,1013.48
2017-04-10T03:16:34.062Z,1013.57
2017-04-10T03:17:43.005Z,1013.59
2017-04-10T03:18:51.902Z,1013.59
2017-04-10T03:20:00.787Z,1013.47
2017-04-10T03:21:10.328Z,1013.56
2017-04-10T03:22:19.553Z,1013.42
2017-04-10T03:23:28.605Z,1013.52
2017-04-10T03:24:38.471Z,1013.4
2017-04-10T03:25:47.358Z,1013.44
2017-04-10T03:26:56.245Z,1013.46
2017-04-10T03:28:05.138Z,1013.44
2017-04-10T03:29:14.180Z,1013.5
2017-04-10T03:30:23.073Z,1013.56
2017-04-10T03:31:31.963Z,1013.54
2017-04-10T03:32:41.178Z,1013.5
2017-04-10T03:33:50.396Z,1013.5
2017-04-10T03:35:00.410Z,1013.47
2017-04-10T03:36:09.619Z,1013.5
2017-04-10T03:37:18.831Z,1013.49
2017-04-10T03:38:28.374Z,1013.53
2017-04-10T03:39:37.592Z,1013.52
2017-04-10T03:40:46.635Z,1013.49
2017-04-10T03:41:55.527Z,1013.57
2017-04-10T03:43:04.414Z,1013.46
2017-04-10T03:44:13.305Z,1013.54
2017-04-10T03:45:22.515Z,1013.55
2017-04-10T03:46:31.558Z,1013.54
2017-04-10T03:47:40.772Z,1013.55
2017-04-10T03:48:49.660Z,1013.6
2017-04-10T03:49:58.545Z,1013.55
2017-04-10T03:51:07.435Z,1013.5
2017-04-10T03:52:16.384Z,1013.5
2017-04-10T03:53:25.273Z,1013.51
2017-04-10T03:54:34.170Z,1013.53
2017-04-10T03:55:43.706Z,1013.62
2017-04-10T03:56:53.243Z,1013.54
2017-04-10T03:58:02.385Z,1013.58
2017-04-10T03:59:11.634Z,1013.6
2017-04-10T04:00:20.853Z,1013.54
2017-04-10T04:01:30.387Z,1013.54
2017-04-10T04:02:39.273Z,1013.57
2017-04-10T04:03:48.310Z,1013.53
2017-04-10T04:04:57.526Z,1013.61
2017-04-10T04:06:06.413Z,1013.53
2017-04-10T04:07:15.301Z,1013.58
2017-04-10T04:08:24.517Z,1013.56
2017-04-10T04:09:33.559Z,1013.67
2017-04-10T04:10:42.773Z,1013.64
2017-04-10T04:11:51.987Z,1013.51
2017-04-10T04:13:01.197Z,1013.61
2017-04-10T04:14:10.407Z,1013.6
2017-04-10T04:15:19.599Z,1013.6
2017-04-10T04:16:28.491Z,1013.61
2017-04-10T04:17:37.728Z,1013.63
2017-04-10T04:18:46.940Z,1013.66
2017-04-10T04:19:56.476Z,1013.63
2017-04-10T04:21:05.774Z,1013.71
2017-04-10T04:22:14.664Z,1013.71
2017-04-10T04:23:23.878Z,1013.74
2017-04-10T04:24:33.091Z,1013.74
2017-04-10T04:25:41.981Z,1013.73
2017-04-10T04:26:51.122Z,1013.78
2017-04-10T04:28:00.018Z,1013.84
2017-04-10T04:29:09.237Z,1013.8
2017-04-10T04:30:18.125Z,1013.81
2017-04-10T04:31:27.013Z,1013.85
2017-04-10T04:32:36.377Z,1013.88
2017-04-10T04:33:45.589Z,1013.89
2017-04-10T04:34:54.807Z,1013.92
2017-04-10T04:36:03.699Z,1013.97
2017-04-10T04:37:12.586Z,1014.02
2017-04-10T04:38:21.523Z,1013.98
2017-04-10T04:39:30.412Z,1014.02
2017-04-10T04:40:39.299Z,1014.08
2017-04-10T04:41:48.189Z,1014.14
2017-04-10T04:42:57.077Z,1014.09
2017-04-10T04:44:06.212Z,1014.13
2017-04-10T04:45:15.421Z,1014.18
2017-04-10T04:46:24.636Z,1014.17
2017-04-10T04:47:33.525Z,1014.18
2017-04-10T04:48:42.737Z,1014.19
2017-04-10T04:49:51.826Z,1014.24
2017-04-10T04:51:00.713Z,1014.23
2017-04-10T04:52:09.600Z,1014.25
2017-04-10T04:53:18.491Z,1014.26
2017-04-10T04:54:27.700Z,1014.24
2017-04-10T04:55:37.065Z,1014.31
2017-04-10T04:56:45.955Z,1014.28
2017-04-10T04:57:55.171Z,1014.32
2017-04-10T04:59:04.398Z,1014.28
2017-04-10T05:00:13.289Z,1014.29
2017-04-10T05:01:22.464Z,1014.3
2017-04-10T05:02:31.678Z,1014.34
2017-04-10T05:03:40.569Z,1014.35
2017-04-10T05:04:49.457Z,1014.37
2017-04-10T05:05:58.352Z,1014.38
2017-04-10T05:07:07.290Z,1014.39
2017-04-10T05:08:16.222Z,1014.4
2017-04-10T05:09:25.758Z,1014.45
2017-04-10T05:10:34.981Z,1014.49
2017-04-10T05:11:43.871Z,1014.53
2017-04-10T05:12:52.911Z,1014.54
2017-04-10T05:14:01.802Z,1014.52
2017-04-10T05:15:10.691Z,1014.59
2017-04-10T05:16:19.580Z,1014.67
2017-04-10T05:17:28.799Z,1014.67
2017-04-10T05:18:38.160Z,1014.66
2017-04-10T05:19:47.375Z,1014.77
2017-04-10T05:20:56.264Z,1014.73
2017-04-10T05:22:05.154Z,1014.77
2017-04-10T05:23:14.370Z,1014.79
2017-04-10T05:24:23.314Z,1014.83
2017-04-10T05:25:32.851Z,1014.8
2017-04-10T05:26:41.747Z,1014.85
2017-04-10T05:27:50.644Z,1014.82
2017-04-10T05:28:59.860Z,1014.81
2017-04-10T05:30:09.260Z,1014.83
2017-04-10T05:31:18.798Z,1014.84
2017-04-10T05:32:27.693Z,1014.81
2017-04-10T05:33:36.916Z,1014.93
2017-04-10T05:34:45.806Z,1014.97
2017-04-10T05:35:54.945Z,1015
2017-04-10T05:37:03.833Z,1014.92
2017-04-10T05:38:13.048Z,1014.99
2017-04-10T05:39:21.935Z,1014.94
2017-04-10T05:40:30.839Z,1015.03
2017-04-10T05:41:40.050Z,1015.02
2017-04-10T05:42:48.938Z,1015.08
2017-04-10T05:43:57.832Z,1015.06
2017-04-10T05:45:07.048Z,1015.01
2017-04-10T05:46:16.268Z,1015.07
2017-04-10T05:47:25.257Z,1015.06
2017-04-10T05:48:34.486Z,1015.1
2017-04-10T05:49:43.701Z,1015.11
2017-04-10T05:50:52.590Z,1015.13
2017-04-10T05:52:01.480Z,1015.15
2017-04-10T05:53:10.847Z,1015.2
2017-04-10T05:54:19.742Z,1015.21
2017-04-10T05:55:28.633Z,1015.22
2017-04-10T05:56:37.528Z,1015.32
2017-04-10T05:57:46.430Z,1015.31
2017-04-10T05:58:55.694Z,1015.28
2017-04-10T06:00:04.580Z,1015.24
2017-04-10T06:01:13.822Z,1015.29
2017-04-10T06:02:23.038Z,1015.32
2017-04-10T06:03:31.926Z,1015.31
2017-04-10T06:04:41.824Z,1015.32
2017-04-10T06:05:50.721Z,1015.35
2017-04-10T06:06:59.941Z,1015.38
2017-04-10T06:08:08.838Z,1015.4
2017-04-10T06:09:18.055Z,1015.36
2017-04-10T06:10:26.952Z,1015.35
2017-04-10T06:11:35.850Z,1015.41
2017-04-10T06:12:44.742Z,1015.48
2017-04-10T06:13:53.632Z,1015.38
2017-04-10T06:15:02.524Z,1015.44
2017-04-10T06:16:11.566Z,1015.54
2017-04-10T06:17:20.463Z,1015.52
2017-04-10T06:18:29.355Z,1015.55
2017-04-10T06:19:38.246Z,1015.53
2017-04-10T06:20:47.138Z,1015.49
2017-04-10T06:21:56.183Z,1015.6
2017-04-10T06:23:05.073Z,1015.59
2017-04-10T06:24:14.290Z,1015.51
2017-04-10T06:25:23.219Z,1015.62
2017-04-10T06:26:32.437Z,1015.65
2017-04-10T06:27:42.235Z,1015.65
2017-04-10T06:28:51.146Z,1015.59
2017-04-10T06:30:00.044Z,1015.65
2017-04-10T06:31:08.940Z,1015.7
2017-04-10T06:32:17.839Z,1015.76
2017-04-10T06:33:26.931Z,1015.81
2017-04-10T06:34:35.836Z,1015.77
2017-04-10T06:35:44.735Z,1015.85
2017-04-10T06:36:53.628Z,1015.93
2017-04-10T06:38:02.523Z,1015.82
2017-04-10T06:39:11.666Z,1015.87
2017-04-10T06:40:20.883Z,1015.91
2017-04-10T06:41:30.102Z,1015.88
2017-04-10T06:42:38.995Z,1015.92
2017-04-10T06:43:47.892Z,1015.83
2017-04-10T06:44:56.885Z,1015.98
2017-04-10T06:46:06.102Z,1016.02
2017-04-10T06:47:14.994Z,1015.95
2017-04-10T06:48:23.888Z,1015.95
2017-04-10T06:49:32.789Z,1016.04
2017-04-10T06:50:41.834Z,1016.05
2017-04-10T06:51:51.702Z,1016.06
2017-04-10T06:53:01.285Z,1016.18
2017-04-10T06:54:10.188Z,1016.09
2017-04-10T06:55:19.469Z,1016.15
2017-04-10T06:56:28.810Z,1016.22
2017-04-10T06:57:37.819Z,1016.29
2017-04-10T06:58:46.711Z,1016.3
2017-04-10T06:59:55.603Z,1016.24
2017-04-10T07:01:04.573Z,1016.33
2017-04-10T07:02:13.616Z,1016.31
2017-04-10T07:03:22.514Z,1016.3
2017-04-10T07:04:31.682Z,1016.34
2017-04-10T07:05:40.597Z,1016.44
2017-04-10T07:06:49.489Z,1016.4
2017-04-10T07:07:59.184Z,1016.42
2017-04-10T07:09:08.110Z,1016.52
2017-04-10T07:10:17.000Z,1016.45
2017-04-10T07:11:25.896Z,1016.46
2017-04-10T07:12:35.121Z,1016.57
2017-04-10T07:13:44.494Z,1016.61
2017-04-10T07:14:53.392Z,1016.71
2017-04-10T07:16:02.607Z,1016.54
2017-04-10T07:17:11.541Z,1016.67
2017-04-10T07:18:20.445Z,1016.64
2017-04-10T07:19:29.816Z,1016.63
2017-04-10T07:20:38.722Z,1016.73
2017-04-10T07:21:47.629Z,1016.69
2017-04-10T07:22:56.529Z,1016.71
2017-04-10T07:24:05.424Z,1016.67
2017-04-10T07:25:14.421Z,1016.68
2017-04-10T07:26:23.649Z,1016.71
2017-04-10T07:27:32.547Z,1016.72
2017-04-10T07:28:41.439Z,1016.76
2017-04-10T07:29:50.349Z,1016.83
2017-04-10T07:30:59.495Z,1016.75
2017-04-10T07:32:08.399Z,1016.81
2017-04-10T07:33:17.293Z,1016.8
2017-04-10T07:34:26.190Z,1016.97
2017-04-10T07:35:35.402Z,1016.8
2017-04-10T07:36:45.277Z,1016.92
2017-04-10T07:37:54.171Z,1016.88
2017-04-10T07:39:03.066Z,1016.85
2017-04-10T07:40:12.287Z,1016.87
2017-04-10T07:41:21.181Z,1016.87
2017-04-10T07:42:30.726Z,1016.77
2017-04-10T07:43:39.622Z,1016.86
2017-04-10T07:44:48.515Z,1016.93
2017-04-10T07:45:57.736Z,1017.04
2017-04-10T07:47:07.283Z,1017.09
2017-04-10T07:48:16.175Z,1017.09
2017-04-10T07:49:25.392Z,1017.06
2017-04-10T07:50:34.287Z,1017.08
2017-04-10T07:51:43.182Z,1017.13
2017-04-10T07:52:52.074Z,1017.17
2017-04-10T07:54:00.966Z,1017.14
2017-04-10T07:55:09.860Z,1017.14
2017-04-10T07:56:18.755Z,1017.18
2017-04-10T07:57:27.660Z,1017.15
2017-04-10T07:58:36.554Z,1017.17
2017-04-10T07:59:45.595Z,1017.24
2017-04-10T08:00:54.493Z,1017.32
2017-04-10T08:02:03.386Z,1017.26
2017-04-10T08:03:12.278Z,1017.36
2017-04-10T08:04:21.533Z,1017.46
2017-04-10T08:05:30.918Z,1017.49
2017-04-10T08:06:39.817Z,1017.42
2017-04-10T08:07:48.711Z,1017.42
2017-04-10T08:08:57.608Z,1017.53
2017-04-10T08:10:06.824Z,1017.62
2017-04-10T08:11:16.521Z,1017.56
2017-04-10T08:12:26.072Z,1017.67
2017-04-10T08:13:35.613Z,1017.64
2017-04-10T08:14:44.827Z,1017.66
2017-04-10T08:15:53.721Z,1017.69
2017-04-10T08:17:03.314Z,1017.66
2017-04-10T08:18:12.202Z,1017.76
2017-04-10T08:19:21.424Z,1017.75
2017-04-10T08:22:11.804Z,1017.84
2017-04-10T08:23:21.023Z,1017.95
2017-04-10T08:24:29.919Z,1017.91
2017-04-10T08:25:39.154Z,1017.93
2017-04-10T08:26:48.079Z,1017.95
2017-04-10T08:27:57.166Z,1017.97
2017-04-10T08:29:06.402Z,1017.96
2017-04-10T08:30:15.619Z,1018.02
2017-04-10T08:31:24.506Z,1017.98
2017-04-10T08:32:33.398Z,1018.09
2017-04-10T08:33:42.435Z,1018.16
2017-04-10T08:34:51.328Z,1018.09
2017-04-10T08:36:00.221Z,1018.15
2017-04-10T08:37:09.444Z,1018.18
2017-04-10T08:38:18.654Z,1018.21
2017-04-10T08:39:27.693Z,1018.29
2017-04-10T08:40:36.589Z,1018.22
2017-04-10T08:41:45.808Z,1018.31
2017-04-10T08:42:54.696Z,1018.29
2017-04-10T08:44:03.588Z,1018.36
2017-04-10T08:45:12.883Z,1018.28
2017-04-10T08:46:21.807Z,1018.27
2017-04-10T08:47:30.699Z,1018.2
2017-04-10T08:48:39.611Z,1018.26
2017-04-10T08:49:48.544Z,1018.41
2017-04-10T08:50:57.695Z,1018.34
2017-04-10T08:52:06.587Z,1018.36
2017-04-10T08:53:15.480Z,1018.33
2017-04-10T08:54:24.699Z,1018.43
2017-04-10T08:55:33.616Z,1018.4
2017-04-10T08:56:42.687Z,1018.34
2017-04-10T08:57:51.902Z,1018.4
2017-04-10T08:59:01.117Z,1018.44
2017-04-10T09:00:10.333Z,1018.46
2017-04-10T09:01:19.548Z,1018.51
2017-04-10T09:02:28.766Z,1018.52
2017-04-10T09:03:37.663Z,1018.54
2017-04-10T09:04:46.555Z,1018.56
2017-04-10T09:05:55.446Z,1018.59
2017-04-10T09:07:04.666Z,1018.65
2017-04-10T09:08:13.761Z,1018.6
2017-04-10T09:09:22.652Z,1018.6
2017-04-10T09:10:31.869Z,1018.62
2017-04-10T09:11:40.761Z,1018.62
2017-04-10T09:12:49.651Z,1018.66
2017-04-10T09:13:58.841Z,1018.7
2017-04-10T09:15:07.737Z,1018.74
2017-04-10T09:16:16.960Z,1018.79
2017-04-10T09:17:26.174Z,1018.8
2017-04-10T09:18:35.063Z,1018.84
2017-04-10T09:19:44.103Z,1018.78
2017-04-10T09:20:52.994Z,1018.83
2017-04-10T09:22:02.214Z,1018.84
2017-04-10T09:23:11.435Z,1018.86
2017-04-10T09:24:20.325Z,1018.96
2017-04-10T09:25:29.269Z,1018.94
2017-04-10T09:26:38.159Z,1018.96
2017-04-10T09:27:47.050Z,1018.96
2017-04-10T09:28:56.264Z,1019.01
2017-04-10T09:30:05.156Z,1019
2017-04-10T09:31:14.374Z,1019.05
2017-04-10T09:32:23.266Z,1019.06
2017-04-10T09:33:32.165Z,1019.04
2017-04-10T09:34:41.090Z,1019.12
2017-04-10T09:35:49.992Z,1019.06
2017-04-10T09:36:59.035Z,1019.12
2017-04-10T09:38:07.930Z,1019.13
2017-04-10T09:39:16.825Z,1019.11
2017-04-10T09:40:26.044Z,1019.16
2017-04-10T09:41:35.593Z,1019.18
2017-04-10T09:42:44.652Z,1019.15
2017-04-10T09:43:53.541Z,1019.14
2017-04-10T09:45:02.439Z,1019.16
2017-04-10T09:46:11.333Z,1019.3
2017-04-10T09:47:20.227Z,1019.28
2017-04-10T09:48:29.426Z,1019.31
2017-04-10T09:49:38.317Z,1019.21
2017-04-10T09:50:47.208Z,1019.25
2017-04-10T09:51:56.100Z,1019.31
2017-04-10T09:53:04.993Z,1019.3
2017-04-10T09:54:14.134Z,1019.34
2017-04-10T09:55:23.027Z,1019.34
2017-04-10T09:56:32.251Z,1019.32
2017-04-10T09:57:41.148Z,1019.37
2017-04-10T09:58:50.038Z,1019.28
2017-04-10T09:59:58.933Z,1019.38
2017-04-10T10:01:07.828Z,1019.32
2017-04-10T10:02:16.725Z,1019.27
2017-04-10T10:03:25.617Z,1019.3
2017-04-10T10:04:34.517Z,1019.26
2017-04-10T10:05:43.660Z,1019.33
2017-04-10T10:06:52.562Z,1019.29
2017-04-10T10:08:01.457Z,1019.32
2017-04-10T10:09:10.347Z,1019.33
2017-04-10T10:10:19.237Z,1019.41
2017-04-10T10:11:28.326Z,1019.29
2017-04-10T10:12:37.219Z,1019.32
2017-04-10T10:13:46.113Z,1019.33
2017-04-10T10:14:55.004Z,1019.39
2017-04-10T10:16:04.223Z,1019.31
2017-04-10T10:17:13.417Z,1019.32
2017-04-10T10:18:22.308Z,1019.31
2017-04-10T10:19:31.520Z,1019.35
2017-04-10T10:20:40.739Z,1019.39
2017-04-10T10:21:49.628Z,1019.33
2017-04-10T10:22:58.998Z,1019.45
2017-04-10T10:24:07.890Z,1019.47
2017-04-10T10:25:16.781Z,1019.42
2017-04-10T10:26:25.679Z,1019.38
2017-04-10T10:27:34.894Z,1019.4
2017-04-10T10:28:43.887Z,1019.38
2017-04-10T10:29:52.790Z,1019.42
2017-04-10T10:31:01.688Z,1019.5
2017-04-10T10:32:10.577Z,1019.5
2017-04-10T10:33:19.468Z,1019.47
2017-04-10T10:34:28.410Z,1019.6
2017-04-10T10:35:37.298Z,1019.56
2017-04-10T10:36:46.842Z,1019.51
2017-04-10T10:37:56.061Z,1019.5
2017-04-10T10:39:05.283Z,1019.55
2017-04-10T10:40:14.875Z,1019.54
2017-04-10T10:41:23.769Z,1019.53
2017-04-10T10:42:32.665Z,1019.52
2017-04-10T10:43:41.556Z,1019.62
2017-04-10T10:44:50.448Z,1019.57
2017-04-10T10:45:59.540Z,1019.59
2017-04-10T10:47:08.432Z,1019.64
2017-04-10T10:48:17.324Z,1019.59
2017-04-10T10:49:26.867Z,1019.66
2017-04-10T10:50:35.757Z,1019.57
2017-04-10T10:51:44.954Z,1019.66
2017-04-10T10:52:54.171Z,1019.59
2017-04-10T10:54:03.064Z,1019.6
2017-04-10T10:55:11.960Z,1019.63
2017-04-10T10:56:20.855Z,1019.65
2017-04-10T10:57:30.012Z,1019.62
2017-04-10T10:58:38.902Z,1019.59
2017-04-10T10:59:47.800Z,1019.52
2017-04-10T11:00:57.018Z,1019.58
2017-04-10T11:02:06.247Z,1019.55
2017-04-10T11:03:15.242Z,1019.71
2017-04-10T11:04:24.464Z,1019.57
2017-04-10T11:05:33.356Z,1019.64
2017-04-10T11:06:42.571Z,1019.67
2017-04-10T11:07:51.791Z,1019.61
2017-04-10T11:09:00.880Z,1019.64
2017-04-10T11:10:09.786Z,1019.66
2017-04-10T11:11:19.005Z,1019.66
2017-04-10T11:12:27.899Z,1019.59
2017-04-10T11:13:36.797Z,1019.61
2017-04-10T11:14:46.167Z,1019.62
2017-04-10T11:15:55.386Z,1019.59
2017-04-10T11:17:04.277Z,1019.55
2017-04-10T11:18:13.175Z,1019.67
2017-04-10T11:19:22.391Z,1019.63
2017-04-10T11:20:31.286Z,1019.67
2017-04-10T11:21:40.182Z,1019.78
2017-04-10T11:22:49.407Z,1019.77
2017-04-10T11:23:58.306Z,1019.81
2017-04-10T11:25:07.203Z,1019.88
2017-04-10T11:26:16.477Z,1019.93
2017-04-10T11:27:25.393Z,1019.94
2017-04-10T11:28:34.290Z,1019.98
2017-04-10T11:29:43.214Z,1019.92
2017-04-10T11:30:52.117Z,1019.97
2017-04-10T11:32:01.717Z,1019.95
2017-04-10T11:33:10.623Z,1019.96
2017-04-10T11:34:19.519Z,1020.01
2017-04-10T11:35:28.413Z,1020.01
2017-04-10T11:36:37.311Z,1020.04
2017-04-10T11:37:46.740Z,1020.09
2017-04-10T11:38:55.959Z,1020
2017-04-10T11:40:04.853Z,1020.03
2017-04-10T11:41:13.751Z,1019.99
2017-04-10T11:42:22.650Z,1020.07
2017-04-10T11:43:31.842Z,1020.05
2017-04-10T11:44:40.738Z,1020.08
2017-04-10T11:45:49.638Z,1020.06
2017-04-10T11:46:58.581Z,1020.03
2017-04-10T11:48:07.797Z,1020.07
2017-04-10T11:49:17.167Z,1020.04
2017-04-10T11:50:26.059Z,1020.04
2017-04-10T11:51:34.959Z,1020.05
2017-04-10T11:52:43.857Z,1020.02
2017-04-10T11:53:52.765Z,1020.04
2017-04-10T11:55:02.145Z,1020.18
2017-04-10T11:56:11.046Z,1020.05
2017-04-10T11:57:19.941Z,1020.1
2017-04-10T11:58:28.836Z,1020.1
2017-04-10T11:59:37.754Z,1020.06
2017-04-10T12:00:47.138Z,1020.05
2017-04-10T12:01:56.047Z,1020.1
2017-04-10T12:03:05.272Z,1020.15
2017-04-10T12:04:14.172Z,1020.18
2017-04-10T12:05:23.068Z,1020.1
2017-04-10T12:06:32.123Z,1020.09
2017-04-10T12:07:41.345Z,1020.19
2017-04-10T12:08:50.240Z,1020.13
2017-04-10T12:09:59.134Z,1020.09
2017-04-10T12:11:08.363Z,1020.19
2017-04-10T12:12:17.631Z,1020.32
2017-04-10T12:13:26.523Z,1020.19
2017-04-10T12:14:35.753Z,1020.19
2017-04-10T12:15:44.697Z,1020.21
2017-04-10T12:16:53.600Z,1020.11
2017-04-10T12:18:02.703Z,1020.15
2017-04-10T12:19:11.600Z,1020.2
2017-04-10T12:20:20.500Z,1020.35
2017-04-10T12:21:29.396Z,1020.26
2017-04-10T12:22:38.621Z,1020.28
2017-04-10T12:23:47.571Z,1020.34
2017-04-10T12:24:56.477Z,1020.41
2017-04-10T12:26:05.371Z,1020.24
2017-04-10T12:27:14.267Z,1020.32
2017-04-10T12:28:23.807Z,1020.33
2017-04-10T12:29:32.850Z,1020.29
2017-04-10T12:30:41.749Z,1020.32
2017-04-10T12:31:50.660Z,1020.43
2017-04-10T12:32:59.556Z,1020.37
2017-04-10T12:34:08.798Z,1020.29
2017-04-10T12:35:17.945Z,1020.39
2017-04-10T12:36:27.168Z,1020.38
2017-04-10T12:37:36.065Z,1020.43
2017-04-10T12:38:44.980Z,1020.42
2017-04-10T12:39:53.883Z,1020.37
2017-04-10T12:41:02.979Z,1020.37
2017-04-10T12:42:11.879Z,1020.28
2017-04-10T12:43:20.787Z,1020.41
2017-04-10T12:44:29.690Z,1020.37
2017-04-10T12:45:38.916Z,1020.28
2017-04-10T12:46:48.287Z,1020.38
2017-04-10T12:47:57.185Z,1020.35
2017-04-10T12:49:06.410Z,1020.49
2017-04-10T12:50:15.304Z,1020.44
2017-04-10T12:51:24.216Z,1020.52
2017-04-10T12:52:33.486Z,1020.5
2017-04-10T12:53:42.381Z,1020.35
2017-04-10T12:54:51.279Z,1020.39
2017-04-10T12:56:00.175Z,1020.44
2017-04-10T12:57:09.072Z,1020.53
2017-04-10T12:58:18.018Z,1020.55
2017-04-10T12:59:26.917Z,1020.48
2017-04-10T13:00:35.816Z,1020.53
2017-04-10T13:01:45.367Z,1020.55
2017-04-10T13:02:54.264Z,1020.57
2017-04-10T13:04:03.409Z,1020.5
2017-04-10T13:05:12.305Z,1020.6
2017-04-10T13:06:21.851Z,1020.65
2017-04-10T13:07:30.747Z,1020.57
2017-04-10T13:08:39.968Z,1020.68
2017-04-10T13:09:48.913Z,1020.69
2017-04-10T13:10:57.812Z,1020.63
2017-04-10T13:12:06.710Z,1020.64
2017-04-10T13:13:15.933Z,1020.7
2017-04-10T13:14:25.484Z,1020.65
2017-04-10T13:15:34.689Z,1020.59
2017-04-10T13:16:43.588Z,1020.55
2017-04-10T13:17:52.493Z,1020.46
2017-04-10T13:19:01.723Z,1020.51
2017-04-10T13:20:10.952Z,1020.51
2017-04-10T13:21:19.953Z,1020.54
2017-04-10T13:22:29.178Z,1020.65
2017-04-10T13:23:38.077Z,1020.6
2017-04-10T13:24:46.979Z,1020.62
2017-04-10T13:25:55.878Z,1020.62
2017-04-10T13:27:04.923Z,1020.67
2017-04-10T13:28:14.157Z,1020.67
2017-04-10T13:29:23.381Z,1020.72
2017-04-10T13:30:32.275Z,1020.69
2017-04-10T13:31:41.168Z,1020.66
2017-04-10T13:32:50.740Z,1020.72
2017-04-10T13:33:59.971Z,1020.65
2017-04-10T13:35:08.879Z,1020.64
2017-04-10T13:36:17.773Z,1020.78
2017-04-10T13:37:26.674Z,1020.68
2017-04-10T13:38:35.650Z,1020.61
2017-04-10T13:39:44.543Z,1020.65
2017-04-10T13:40:53.438Z,1020.7
2017-04-10T13:42:02.659Z,1020.62
2017-04-10T13:43:11.880Z,1020.72
2017-04-10T13:44:20.822Z,1020.62
2017-04-10T13:45:29.713Z,1020.66
2017-04-10T13:46:38.608Z,1020.79
2017-04-10T13:47:47.501Z,1020.71
2017-04-10T13:48:56.394Z,1020.67
2017-04-10T13:50:05.392Z,1020.71
2017-04-10T13:51:14.285Z,1020.71
2017-04-10T13:52:23.181Z,1020.64
2017-04-10T13:53:32.074Z,1020.67
2017-04-10T13:54:40.969Z,1020.67
2017-04-10T13:55:50.062Z,1020.81
2017-04-10T13:56:59.280Z,1020.7
2017-04-10T13:58:08.173Z,1020.72
2017-04-10T13:59:17.078Z,1020.73
2017-04-10T14:00:25.981Z,1020.7